Time;durP1;ratioP1;P1;durP2;ratioP2;P2;SDS_P1;SDS_P2;PMS_P1;PMS_P2;Temp;Humidity;BMP_temperature;BMP_pressure;BME280_temperature;BME280_humidity;BME280_pressure;Samples;Min_cycle;Max_cycle;Signal;HPM_P1;HPM_P2
2022/06/15 17:34:56;;;;;;;5.78;2.20;;;30.70;56.20;;;;;;5090549;27;20802;-55
2022/06/15 17:37:23;;;;;;;8.63;2.60;;;30.10;57.20;;;;;;5090011;28;20036;-53
2022/06/15 17:39:49;;;;;;;7.55;2.35;;;30.00;56.90;;;;;;5090016;28;20468;-56
2022/06/15 17:42:17;;;;;;;7.93;2.60;;;30.00;57.50;;;;;;5089055;28;20032;-55
2022/06/15 17:44:44;;;;;;;7.43;2.10;;;30.00;56.90;;;;;;5090026;28;20048;-53
2022/06/15 17:47:10;;;;;;;8.02;2.45;;;29.70;57.20;;;;;;5089296;28;20067;-54
2022/06/15 17:49:37;;;;;;;7.07;2.20;;;29.60;57.50;;;;;;5089884;28;20441;-55
2022/06/15 17:52:04;;;;;;;8.38;2.60;;;29.90;57.10;;;;;;5089335;28;20502;-57
2022/06/15 17:54:30;;;;;;;5.95;2.30;;;30.20;56.20;;;;;;5081901;28;20044;-55
2022/06/15 17:56:57;;;;;;;5.25;2.20;;;30.30;56.10;;;;;;5075967;28;20032;-51
2022/06/15 17:59:24;;;;;;;6.05;2.35;;;30.40;55.60;;;;;;5070079;28;20037;-53
2022/06/15 18:01:51;;;;;;;8.05;2.20;;;30.50;55.60;;;;;;5070189;28;20033;-58
2022/06/15 18:04:18;;;;;;;7.63;2.30;;;30.60;56.00;;;;;;5088190;28;20140;-54
2022/06/15 18:06:45;;;;;;;4.85;2.00;;;30.70;55.00;;;;;;5089685;28;20076;-52
2022/06/15 18:09:12;;;;;;;7.78;2.30;;;30.80;55.20;;;;;;5088425;28;20044;-51
2022/06/15 18:11:39;;;;;;;5.47;2.42;;;31.00;54.50;;;;;;5088372;28;20044;-50
2022/06/15 18:14:06;;;;;;;9.27;2.47;;;30.80;54.60;;;;;;5089256;28;20040;-51
2022/06/15 18:16:32;;;;;;;6.60;2.20;;;30.50;55.50;;;;;;5089557;28;20059;-55
2022/06/15 18:18:59;;;;;;;5.85;2.50;;;30.40;55.80;;;;;;5089604;28;20484;-55
2022/06/15 18:21:26;;;;;;;6.80;2.20;;;30.10;55.90;;;;;;5088420;28;20047;-56
2022/06/15 18:23:53;;;;;;;6.20;1.92;;;30.00;55.70;;;;;;5069930;28;20426;-55
2022/06/15 18:26:19;;;;;;;5.70;2.22;;;30.00;56.20;;;;;;5084782;28;20411;-56
2022/06/15 18:28:46;;;;;;;7.03;2.90;;;30.30;55.80;;;;;;5088329;28;20053;-53
2022/06/15 18:31:13;;;;;;;5.03;2.63;;;30.50;54.90;;;;;;5088336;28;20063;-53
2022/06/15 18:33:40;;;;;;;8.32;2.38;;;30.70;54.80;;;;;;5089013;28;20084;-54
2022/06/15 18:36:07;;;;;;;9.60;2.60;;;30.80;54.70;;;;;;5088948;28;20464;-56
2022/06/15 18:38:33;;;;;;;7.93;2.55;;;30.90;54.20;;;;;;5069818;28;20037;-58
2022/06/15 18:41:00;;;;;;;5.60;1.95;;;30.90;54.00;;;;;;5076737;28;20055;-58
2022/06/15 18:48:58;;;;;;;3.72;1.88;;;29.50;54.50;;;;;;5075473;28;20048;-53
2022/06/15 18:51:25;;;;;;;7.75;2.00;;;28.90;54.80;;;;;;5074490;28;20045;-53
2022/06/15 18:53:52;;;;;;;4.75;2.20;;;28.60;55.70;;;;;;5075494;28;20047;-56
2022/06/15 18:56:18;;;;;;;5.60;2.00;;;28.30;56.20;;;;;;5074454;28;20106;-56
2022/06/15 18:58:46;;;;;;;9.77;2.50;;;28.00;56.20;;;;;;5075220;28;20036;-56
2022/06/15 19:01:13;;;;;;;7.50;2.40;;;27.70;56.70;;;;;;5075061;28;20094;-55
2022/06/15 19:03:40;;;;;;;12.05;2.42;;;27.40;56.60;;;;;;5072843;28;20040;-52
2022/06/15 19:06:07;;;;;;;6.00;2.55;;;27.20;57.30;;;;;;5067052;28;20044;-58
2022/06/15 19:08:33;;;;;;;6.82;2.22;;;26.90;57.10;;;;;;5054501;28;20045;-52
2022/06/15 19:11:01;;;;;;;18.17;3.33;;;26.80;57.90;;;;;;5063628;28;20118;-58
2022/06/15 19:13:28;;;;;;;6.55;2.17;;;26.60;58.10;;;;;;5062304;28;20041;-56
2022/06/15 19:15:54;;;;;;;5.97;2.33;;;26.40;58.30;;;;;;5065269;28;20102;-54
2022/06/15 19:18:24;;;;;;;5.60;2.38;;;26.20;58.60;;;;;;5068396;28;20033;-56
2022/06/15 19:20:51;;;;;;;8.38;2.40;;;26.10;59.00;;;;;;5055303;28;20034;-56
2022/06/15 19:23:20;;;;;;;7.22;2.20;;;25.90;58.90;;;;;;5063616;28;20391;-55
2022/06/15 19:25:47;;;;;;;8.45;2.40;;;25.80;59.00;;;;;;5073133;28;20083;-55
2022/06/15 19:28:14;;;;;;;8.23;2.35;;;25.60;59.20;;;;;;5061949;28;20481;-58
2022/06/15 19:30:41;;;;;;;5.97;2.60;;;25.50;59.80;;;;;;5056775;28;20045;-51
2022/06/15 19:33:09;;;;;;;7.55;2.40;;;25.30;59.70;;;;;;5064830;28;20049;-49
2022/06/15 19:35:36;;;;;;;10.27;2.67;;;25.20;60.10;;;;;;5056920;28;20040;-61
2022/06/15 19:38:02;;;;;;;5.43;2.28;;;25.10;60.40;;;;;;5058661;28;20041;-57
2022/06/15 19:40:29;;;;;;;6.82;2.55;;;24.90;60.60;;;;;;5059261;28;20546;-57
2022/06/15 19:42:56;;;;;;;7.13;3.10;;;24.90;60.90;;;;;;5063874;28;20043;-57
2022/06/15 19:45:23;;;;;;;12.60;4.63;;;24.70;61.30;;;;;;5054627;28;20094;-50
2022/06/15 19:47:49;;;;;;;16.73;4.78;;;24.60;61.30;;;;;;5055857;28;20416;-50
2022/06/15 19:50:17;;;;;;;10.88;4.50;;;24.50;61.30;;;;;;5069564;28;20552;-51
2022/06/15 19:52:43;;;;;;;9.35;4.75;;;24.40;62.00;;;;;;5059719;28;20045;-53
2022/06/15 19:55:10;;;;;;;13.43;5.90;;;24.20;62.00;;;;;;5060961;28;20039;-54
2022/06/15 19:57:40;;;;;;;11.23;5.65;;;24.20;62.00;;;;;;5065030;28;20123;-53
2022/06/15 20:00:11;;;;;;;8.95;4.95;;;24.10;62.10;;;;;;5057750;28;20041;-52
2022/06/15 20:02:38;;;;;;;15.18;6.00;;;24.00;62.60;;;;;;5064931;28;21020;-55
2022/06/15 20:05:05;;;;;;;11.57;4.95;;;23.90;62.50;;;;;;5057157;28;20052;-54
2022/06/15 20:07:32;;;;;;;12.88;5.30;;;23.80;63.00;;;;;;5062926;28;20040;-55
2022/06/15 20:09:59;;;;;;;8.63;3.75;;;23.70;63.10;;;;;;5058965;28;20415;-52
2022/06/15 20:12:26;;;;;;;11.32;4.40;;;23.70;63.00;;;;;;5072254;28;20044;-52
2022/06/15 20:14:53;;;;;;;10.77;4.32;;;23.60;63.60;;;;;;5058202;28;20048;-55
2022/06/15 20:17:21;;;;;;;6.93;3.58;;;23.50;63.60;;;;;;5056503;28;20055;-53
2022/06/15 20:19:48;;;;;;;6.82;2.80;;;23.40;63.60;;;;;;5056480;28;20036;-56
2022/06/15 20:22:15;;;;;;;5.70;2.63;;;23.40;63.70;;;;;;5053960;28;20040;-54
2022/06/15 20:24:47;;;;;;;6.10;2.40;;;23.30;64.10;;;;;;5072159;28;20049;-53
2022/06/15 20:27:15;;;;;;;6.15;2.50;;;23.20;63.90;;;;;;5058241;28;20055;-56
2022/06/15 20:29:42;;;;;;;7.15;2.63;;;23.10;64.20;;;;;;5054279;28;20040;-51
2022/06/15 20:32:09;;;;;;;4.03;2.30;;;23.10;64.60;;;;;;5066217;28;20412;-49
2022/06/15 20:34:37;;;;;;;7.28;2.72;;;23.00;64.40;;;;;;5072365;28;20491;-58
2022/06/15 20:37:04;;;;;;;7.38;2.90;;;22.90;64.30;;;;;;5072884;28;20511;-53
2022/06/15 20:39:31;;;;;;;6.63;2.58;;;22.80;64.40;;;;;;5075226;28;20090;-56
2022/06/15 20:41:58;;;;;;;5.03;2.42;;;22.70;64.40;;;;;;5054197;28;20037;-57
2022/06/15 20:44:27;;;;;;;5.63;2.40;;;22.60;64.60;;;;;;5056503;28;20432;-53
2022/06/15 20:46:54;;;;;;;5.65;2.50;;;22.50;65.00;;;;;;5063381;28;20123;-51
2022/06/15 20:49:20;;;;;;;6.93;2.20;;;22.50;65.20;;;;;;5055612;28;20514;-54
2022/06/15 20:51:47;;;;;;;7.65;2.65;;;22.40;65.10;;;;;;5054022;28;20593;-54
2022/06/15 20:54:16;;;;;;;5.22;2.53;;;22.30;65.30;;;;;;5058790;28;20037;-54
2022/06/15 20:56:43;;;;;;;6.43;2.67;;;22.30;65.40;;;;;;5056808;28;20059;-55
2022/06/15 20:59:09;;;;;;;8.45;2.80;;;22.20;65.10;;;;;;5065419;28;20131;-52
2022/06/15 21:01:36;;;;;;;7.07;2.92;;;22.10;65.80;;;;;;5067929;28;20086;-57
2022/06/15 21:04:03;;;;;;;5.53;2.47;;;22.00;65.50;;;;;;5067611;28;20044;-49
2022/06/15 21:06:35;;;;;;;7.25;2.88;;;22.00;65.80;;;;;;5069355;28;20037;-56
2022/06/15 21:09:02;;;;;;;6.57;2.58;;;21.90;65.70;;;;;;5062477;28;20075;-52
